sensor_id;sensor_type;location;lat;lon;timestamp;P1;durP1;ratioP1;P2;durP2;ratioP2
26191;SDS011;13935;55.672;37.764;2022-10-15T00:01:06;16.45;;;6.95;;
26191;SDS011;13935;55.672;37.764;2022-10-15T00:02:27;13.13;;;7.05;;
26191;SDS011;13935;55.672;37.764;2022-10-15T00:03:29;13.65;;;7.63;;
26191;SDS011;13935;55.672;37.764;2022-10-15T00:04:31;13.35;;;7.55;;
26191;SDS011;13935;55.672;37.764;2022-10-15T00:05:38;13.73;;;7.30;;
26191;SDS011;13935;55.672;37.764;2022-10-15T00:06:41;13.77;;;8.05;;
26191;SDS011;13935;55.672;37.764;2022-10-15T00:07:43;12.32;;;7.22;;
26191;SDS011;13935;55.672;37.764;2022-10-15T00:08:45;13.35;;;7.85;;
26191;SDS011;13935;55.672;37.764;2022-10-15T00:09:48;14.73;;;7.45;;
26191;SDS011;13935;55.672;37.764;2022-10-15T00:10:54;16.25;;;7.95;;
26191;SDS011;13935;55.672;37.764;2022-10-15T00:11:56;11.93;;;7.18;;
26191;SDS011;13935;55.672;37.764;2022-10-15T00:12:58;13.98;;;7.20;;
26191;SDS011;13935;55.672;37.764;2022-10-15T00:14:01;13.55;;;7.18;;
26191;SDS011;13935;55.672;37.764;2022-10-15T00:15:03;18.70;;;7.80;;
26191;SDS011;13935;55.672;37.764;2022-10-15T00:16:07;11.88;;;7.20;;
26191;SDS011;13935;55.672;37.764;2022-10-15T00:17:11;12.55;;;6.82;;
26191;SDS011;13935;55.672;37.764;2022-10-15T00:18:13;12.05;;;6.93;;
26191;SDS011;13935;55.672;37.764;2022-10-15T00:19:16;12.48;;;6.68;;
26191;SDS011;13935;55.672;37.764;2022-10-15T00:20:20;9.60;;;6.60;;
26191;SDS011;13935;55.672;37.764;2022-10-15T00:21:25;10.88;;;6.57;;
26191;SDS011;13935;55.672;37.764;2022-10-15T00:22:29;11.55;;;6.85;;
26191;SDS011;13935;55.672;37.764;2022-10-15T00:23:31;14.18;;;6.78;;
26191;SDS011;13935;55.672;37.764;2022-10-15T00:24:35;14.00;;;7.00;;
26191;SDS011;13935;55.672;37.764;2022-10-15T00:25:40;13.23;;;7.07;;
26191;SDS011;13935;55.672;37.764;2022-10-15T00:26:43;14.43;;;6.43;;
26191;SDS011;13935;55.672;37.764;2022-10-15T00:27:45;9.70;;;6.60;;
26191;SDS011;13935;55.672;37.764;2022-10-15T00:28:48;14.85;;;7.55;;
26191;SDS011;13935;55.672;37.764;2022-10-15T00:31:03;13.60;;;7.00;;
26191;SDS011;13935;55.672;37.764;2022-10-15T00:32:08;11.75;;;6.95;;
26191;SDS011;13935;55.672;37.764;2022-10-15T00:33:17;13.48;;;7.10;;
26191;SDS011;13935;55.672;37.764;2022-10-15T00:34:20;13.07;;;6.68;;
26191;SDS011;13935;55.672;37.764;2022-10-15T00:35:22;12.90;;;6.72;;
26191;SDS011;13935;55.672;37.764;2022-10-15T00:36:26;12.32;;;7.50;;
26191;SDS011;13935;55.672;37.764;2022-10-15T00:37:33;10.80;;;6.60;;
26191;SDS011;13935;55.672;37.764;2022-10-15T00:38:38;11.98;;;7.00;;
26191;SDS011;13935;55.672;37.764;2022-10-15T00:39:41;16.15;;;7.03;;
26191;SDS011;13935;55.672;37.764;2022-10-15T00:40:46;11.73;;;7.60;;
26191;SDS011;13935;55.672;37.764;2022-10-15T00:41:48;13.32;;;7.10;;
26191;SDS011;13935;55.672;37.764;2022-10-15T00:42:52;12.18;;;7.30;;
26191;SDS011;13935;55.672;37.764;2022-10-15T00:45:30;14.68;;;7.38;;
26191;SDS011;13935;55.672;37.764;2022-10-15T00:46:36;14.55;;;7.40;;
26191;SDS011;13935;55.672;37.764;2022-10-15T00:47:46;14.82;;;7.68;;
26191;SDS011;13935;55.672;37.764;2022-10-15T00:48:53;12.32;;;6.95;;
26191;SDS011;13935;55.672;37.764;2022-10-15T00:51:18;13.70;;;6.50;;
26191;SDS011;13935;55.672;37.764;2022-10-15T00:53:58;11.73;;;6.55;;
26191;SDS011;13935;55.672;37.764;2022-10-15T00:55:06;12.20;;;7.15;;
26191;SDS011;13935;55.672;37.764;2022-10-15T00:56:12;13.63;;;6.75;;
26191;SDS011;13935;55.672;37.764;2022-10-15T00:57:16;14.23;;;7.15;;
26191;SDS011;13935;55.672;37.764;2022-10-15T00:58:21;11.73;;;6.80;;
26191;SDS011;13935;55.672;37.764;2022-10-15T00:59:30;13.48;;;6.57;;
26191;SDS011;13935;55.672;37.764;2022-10-15T01:00:33;14.65;;;7.40;;
26191;SDS011;13935;55.672;37.764;2022-10-15T01:01:36;10.88;;;6.40;;
26191;SDS011;13935;55.672;37.764;2022-10-15T01:02:38;12.57;;;6.97;;
26191;SDS011;13935;55.672;37.764;2022-10-15T01:03:42;13.30;;;6.50;;
26191;SDS011;13935;55.672;37.764;2022-10-15T01:04:44;11.23;;;6.50;;
26191;SDS011;13935;55.672;37.764;2022-10-15T01:05:48;14.82;;;6.40;;
26191;SDS011;13935;55.672;37.764;2022-10-15T01:06:53;10.88;;;5.95;;
26191;SDS011;13935;55.672;37.764;2022-10-15T01:07:58;12.05;;;6.35;;
26191;SDS011;13935;55.672;37.764;2022-10-15T01:09:01;12.45;;;6.13;;
26191;SDS011;13935;55.672;37.764;2022-10-15T01:10:06;12.85;;;6.25;;
26191;SDS011;13935;55.672;37.764;2022-10-15T01:13:52;11.40;;;6.38;;
26191;SDS011;13935;55.672;37.764;2022-10-15T01:16:45;10.82;;;5.70;;
26191;SDS011;13935;55.672;37.764;2022-10-15T01:19:01;14.85;;;6.50;;
26191;SDS011;13935;55.672;37.764;2022-10-15T01:21:19;12.95;;;6.57;;
26191;SDS011;13935;55.672;37.764;2022-10-15T01:24:14;12.38;;;6.43;;
26191;SDS011;13935;55.672;37.764;2022-10-15T01:32:26;12.57;;;6.55;;
26191;SDS011;13935;55.672;37.764;2022-10-15T01:36:10;14.05;;;6.50;;
26191;SDS011;13935;55.672;37.764;2022-10-15T01:38:52;12.57;;;6.55;;
26191;SDS011;13935;55.672;37.764;2022-10-15T01:40:04;13.98;;;6.50;;
26191;SDS011;13935;55.672;37.764;2022-10-15T01:44:03;12.13;;;6.30;;
26191;SDS011;13935;55.672;37.764;2022-10-15T01:45:56;11.60;;;5.90;;
26191;SDS011;13935;55.672;37.764;2022-10-15T01:47:24;9.65;;;6.05;;
26191;SDS011;13935;55.672;37.764;2022-10-15T01:48:51;10.57;;;5.55;;
26191;SDS011;13935;55.672;37.764;2022-10-15T01:49:58;12.27;;;6.60;;
26191;SDS011;13935;55.672;37.764;2022-10-15T01:51:05;12.95;;;6.57;;
26191;SDS011;13935;55.672;37.764;2022-10-15T01:52:15;13.43;;;6.15;;
26191;SDS011;13935;55.672;37.764;2022-10-15T01:53:24;11.40;;;6.15;;
26191;SDS011;13935;55.672;37.764;2022-10-15T01:54:29;11.30;;;6.47;;
26191;SDS011;13935;55.672;37.764;2022-10-15T01:55:33;12.43;;;6.30;;
26191;SDS011;13935;55.672;37.764;2022-10-15T01:56:37;12.25;;;6.72;;
26191;SDS011;13935;55.672;37.764;2022-10-15T01:57:42;12.50;;;6.57;;
26191;SDS011;13935;55.672;37.764;2022-10-15T01:58:50;12.30;;;6.40;;
26191;SDS011;13935;55.672;37.764;2022-10-15T01:59:58;14.38;;;6.60;;
26191;SDS011;13935;55.672;37.764;2022-10-15T02:01:05;13.85;;;6.30;;
26191;SDS011;13935;55.672;37.764;2022-10-15T02:02:09;10.48;;;6.15;;
26191;SDS011;13935;55.672;37.764;2022-10-15T02:03:13;10.15;;;6.10;;
26191;SDS011;13935;55.672;37.764;2022-10-15T02:04:19;13.57;;;6.38;;
26191;SDS011;13935;55.672;37.764;2022-10-15T02:05:28;12.65;;;6.03;;
26191;SDS011;13935;55.672;37.764;2022-10-15T02:06:38;13.98;;;5.60;;
26191;SDS011;13935;55.672;37.764;2022-10-15T02:07:56;13.32;;;6.40;;
26191;SDS011;13935;55.672;37.764;2022-10-15T02:09:15;14.93;;;6.22;;
26191;SDS011;13935;55.672;37.764;2022-10-15T02:10:30;11.43;;;6.50;;
26191;SDS011;13935;55.672;37.764;2022-10-15T02:12:04;11.65;;;5.95;;
26191;SDS011;13935;55.672;37.764;2022-10-15T02:13:40;11.52;;;6.53;;
26191;SDS011;13935;55.672;37.764;2022-10-15T02:14:52;12.00;;;6.30;;
26191;SDS011;13935;55.672;37.764;2022-10-15T02:16:19;12.20;;;6.32;;
26191;SDS011;13935;55.672;37.764;2022-10-15T02:17:30;14.05;;;6.72;;
26191;SDS011;13935;55.672;37.764;2022-10-15T02:18:51;12.10;;;6.43;;
26191;SDS011;13935;55.672;37.764;2022-10-15T02:20:19;11.38;;;5.68;;
26191;SDS011;13935;55.672;37.764;2022-10-15T02:21:45;9.43;;;6.63;;
26191;SDS011;13935;55.672;37.764;2022-10-15T02:23:03;12.45;;;6.72;;
26191;SDS011;13935;55.672;37.764;2022-10-15T02:24:19;11.73;;;6.20;;
26191;SDS011;13935;55.672;37.764;2022-10-15T02:25:27;13.02;;;6.43;;
26191;SDS011;13935;55.672;37.764;2022-10-15T02:26:30;13.68;;;6.35;;
26191;SDS011;13935;55.672;37.764;2022-10-15T02:27:37;14.23;;;6.45;;
26191;SDS011;13935;55.672;37.764;2022-10-15T02:28:42;14.52;;;6.68;;
26191;SDS011;13935;55.672;37.764;2022-10-15T02:29:49;12.93;;;6.70;;
26191;SDS011;13935;55.672;37.764;2022-10-15T02:30:54;16.08;;;6.78;;
26191;SDS011;13935;55.672;37.764;2022-10-15T02:32:00;10.15;;;6.18;;
26191;SDS011;13935;55.672;37.764;2022-10-15T02:33:06;13.73;;;6.70;;
26191;SDS011;13935;55.672;37.764;2022-10-15T02:34:13;12.93;;;5.93;;
26191;SDS011;13935;55.672;37.764;2022-10-15T02:35:20;11.05;;;6.60;;
26191;SDS011;13935;55.672;37.764;2022-10-15T02:36:41;10.80;;;6.40;;
26191;SDS011;13935;55.672;37.764;2022-10-15T02:37:45;11.50;;;5.97;;
26191;SDS011;13935;55.672;37.764;2022-10-15T02:38:52;11.18;;;6.18;;
26191;SDS011;13935;55.672;37.764;2022-10-15T02:39:58;11.73;;;6.25;;
26191;SDS011;13935;55.672;37.764;2022-10-15T02:41:02;11.25;;;6.40;;
26191;SDS011;13935;55.672;37.764;2022-10-15T02:42:05;10.25;;;6.55;;
26191;SDS011;13935;55.672;37.764;2022-10-15T02:43:08;12.23;;;6.20;;
26191;SDS011;13935;55.672;37.764;2022-10-15T02:44:12;10.98;;;6.22;;
26191;SDS011;13935;55.672;37.764;2022-10-15T02:45:15;13.32;;;6.05;;
26191;SDS011;13935;55.672;37.764;2022-10-15T02:46:19;9.80;;;6.18;;
26191;SDS011;13935;55.672;37.764;2022-10-15T02:47:21;13.05;;;6.00;;
26191;SDS011;13935;55.672;37.764;2022-10-15T02:48:23;12.88;;;6.25;;
26191;SDS011;13935;55.672;37.764;2022-10-15T02:49:26;15.85;;;6.65;;
26191;SDS011;13935;55.672;37.764;2022-10-15T02:50:31;11.27;;;6.10;;
26191;SDS011;13935;55.672;37.764;2022-10-15T02:51:33;8.82;;;5.75;;
26191;SDS011;13935;55.672;37.764;2022-10-15T02:52:38;12.25;;;6.40;;
26191;SDS011;13935;55.672;37.764;2022-10-15T02:53:40;11.95;;;7.10;;
26191;SDS011;13935;55.672;37.764;2022-10-15T02:54:43;13.82;;;6.80;;
26191;SDS011;13935;55.672;37.764;2022-10-15T02:55:48;12.98;;;6.70;;
26191;SDS011;13935;55.672;37.764;2022-10-15T02:56:52;14.27;;;6.90;;
26191;SDS011;13935;55.672;37.764;2022-10-15T02:57:55;16.58;;;7.15;;
26191;SDS011;13935;55.672;37.764;2022-10-15T02:58:58;10.82;;;6.03;;
26191;SDS011;13935;55.672;37.764;2022-10-15T03:00:00;11.32;;;6.57;;
26191;SDS011;13935;55.672;37.764;2022-10-15T03:01:04;10.98;;;6.85;;
26191;SDS011;13935;55.672;37.764;2022-10-15T03:02:06;12.25;;;6.32;;
26191;SDS011;13935;55.672;37.764;2022-10-15T03:03:17;12.13;;;6.32;;
26191;SDS011;13935;55.672;37.764;2022-10-15T03:04:19;12.27;;;6.35;;
26191;SDS011;13935;55.672;37.764;2022-10-15T03:05:24;13.68;;;6.47;;
26191;SDS011;13935;55.672;37.764;2022-10-15T03:06:32;12.10;;;6.50;;
26191;SDS011;13935;55.672;37.764;2022-10-15T03:07:35;14.38;;;6.63;;
26191;SDS011;13935;55.672;37.764;2022-10-15T03:08:47;14.40;;;6.43;;
26191;SDS011;13935;55.672;37.764;2022-10-15T03:09:52;11.00;;;6.35;;
26191;SDS011;13935;55.672;37.764;2022-10-15T03:10:58;12.65;;;6.28;;
26191;SDS011;13935;55.672;37.764;2022-10-15T03:12:02;14.05;;;6.47;;
26191;SDS011;13935;55.672;37.764;2022-10-15T03:13:06;12.68;;;7.57;;
26191;SDS011;13935;55.672;37.764;2022-10-15T03:14:17;10.85;;;5.70;;
26191;SDS011;13935;55.672;37.764;2022-10-15T03:15:22;11.88;;;5.75;;
26191;SDS011;13935;55.672;37.764;2022-10-15T03:16:25;11.20;;;6.43;;
26191;SDS011;13935;55.672;37.764;2022-10-15T03:17:29;13.27;;;6.50;;
26191;SDS011;13935;55.672;37.764;2022-10-15T03:18:34;10.55;;;6.20;;
26191;SDS011;13935;55.672;37.764;2022-10-15T03:19:44;9.80;;;6.03;;
26191;SDS011;13935;55.672;37.764;2022-10-15T03:20:52;10.70;;;6.40;;
26191;SDS011;13935;55.672;37.764;2022-10-15T03:21:57;17.15;;;6.38;;
26191;SDS011;13935;55.672;37.764;2022-10-15T03:23:05;13.07;;;6.72;;
26191;SDS011;13935;55.672;37.764;2022-10-15T03:24:12;11.00;;;6.00;;
26191;SDS011;13935;55.672;37.764;2022-10-15T03:25:17;11.90;;;6.30;;
26191;SDS011;13935;55.672;37.764;2022-10-15T03:26:19;13.57;;;6.47;;
26191;SDS011;13935;55.672;37.764;2022-10-15T03:27:24;17.50;;;6.88;;
26191;SDS011;13935;55.672;37.764;2022-10-15T03:28:27;14.40;;;6.68;;
26191;SDS011;13935;55.672;37.764;2022-10-15T03:29:30;13.73;;;6.50;;
26191;SDS011;13935;55.672;37.764;2022-10-15T03:30:40;11.10;;;6.38;;
26191;SDS011;13935;55.672;37.764;2022-10-15T03:31:43;16.70;;;6.45;;
26191;SDS011;13935;55.672;37.764;2022-10-15T03:32:46;15.25;;;6.75;;
26191;SDS011;13935;55.672;37.764;2022-10-15T03:33:49;11.90;;;6.43;;
26191;SDS011;13935;55.672;37.764;2022-10-15T03:34:56;12.88;;;6.18;;
26191;SDS011;13935;55.672;37.764;2022-10-15T03:35:58;10.25;;;6.00;;
26191;SDS011;13935;55.672;37.764;2022-10-15T03:37:00;13.32;;;6.20;;
26191;SDS011;13935;55.672;37.764;2022-10-15T03:38:04;11.95;;;6.32;;
26191;SDS011;13935;55.672;37.764;2022-10-15T03:39:07;12.57;;;6.65;;
26191;SDS011;13935;55.672;37.764;2022-10-15T03:40:13;12.50;;;6.07;;
26191;SDS011;13935;55.672;37.764;2022-10-15T03:41:17;14.82;;;6.10;;
26191;SDS011;13935;55.672;37.764;2022-10-15T03:42:20;11.65;;;6.07;;
26191;SDS011;13935;55.672;37.764;2022-10-15T03:43:24;12.32;;;6.47;;
26191;SDS011;13935;55.672;37.764;2022-10-15T03:44:26;13.43;;;6.55;;
26191;SDS011;13935;55.672;37.764;2022-10-15T03:45:41;14.63;;;6.45;;
26191;SDS011;13935;55.672;37.764;2022-10-15T03:46:55;10.95;;;6.28;;
26191;SDS011;13935;55.672;37.764;2022-10-15T03:48:02;15.80;;;6.97;;
26191;SDS011;13935;55.672;37.764;2022-10-15T03:49:08;15.85;;;6.45;;
26191;SDS011;13935;55.672;37.764;2022-10-15T03:50:10;13.35;;;6.45;;
26191;SDS011;13935;55.672;37.764;2022-10-15T03:51:17;11.43;;;6.00;;
26191;SDS011;13935;55.672;37.764;2022-10-15T03:52:37;12.07;;;6.60;;
26191;SDS011;13935;55.672;37.764;2022-10-15T03:53:42;10.90;;;5.88;;
26191;SDS011;13935;55.672;37.764;2022-10-15T03:54:45;11.82;;;6.38;;
26191;SDS011;13935;55.672;37.764;2022-10-15T03:55:53;13.45;;;6.40;;
26191;SDS011;13935;55.672;37.764;2022-10-15T03:56:55;15.02;;;6.63;;
26191;SDS011;13935;55.672;37.764;2022-10-15T03:58:04;9.93;;;6.47;;
26191;SDS011;13935;55.672;37.764;2022-10-15T03:59:15;12.77;;;6.78;;
26191;SDS011;13935;55.672;37.764;2022-10-15T04:00:28;11.43;;;6.40;;
26191;SDS011;13935;55.672;37.764;2022-10-15T04:01:34;10.20;;;5.95;;
26191;SDS011;13935;55.672;37.764;2022-10-15T04:02:39;16.20;;;6.65;;
26191;SDS011;13935;55.672;37.764;2022-10-15T04:03:53;11.43;;;5.78;;
26191;SDS011;13935;55.672;37.764;2022-10-15T04:04:58;11.55;;;5.85;;
26191;SDS011;13935;55.672;37.764;2022-10-15T04:06:00;12.48;;;5.78;;
26191;SDS011;13935;55.672;37.764;2022-10-15T04:07:04;11.18;;;5.68;;
26191;SDS011;13935;55.672;37.764;2022-10-15T04:08:08;14.68;;;6.50;;
26191;SDS011;13935;55.672;37.764;2022-10-15T04:09:14;12.52;;;6.28;;
26191;SDS011;13935;55.672;37.764;2022-10-15T04:10:17;10.93;;;6.45;;
26191;SDS011;13935;55.672;37.764;2022-10-15T04:11:19;13.35;;;6.10;;
26191;SDS011;13935;55.672;37.764;2022-10-15T04:12:34;10.52;;;6.10;;
26191;SDS011;13935;55.672;37.764;2022-10-15T04:13:37;10.43;;;5.97;;
26191;SDS011;13935;55.672;37.764;2022-10-15T04:14:41;9.15;;;5.93;;
26191;SDS011;13935;55.672;37.764;2022-10-15T04:15:43;12.15;;;6.25;;
26191;SDS011;13935;55.672;37.764;2022-10-15T04:16:46;12.18;;;6.00;;
26191;SDS011;13935;55.672;37.764;2022-10-15T04:17:53;12.23;;;6.47;;
26191;SDS011;13935;55.672;37.764;2022-10-15T04:18:57;11.55;;;6.63;;
26191;SDS011;13935;55.672;37.764;2022-10-15T04:20:00;9.02;;;5.55;;
26191;SDS011;13935;55.672;37.764;2022-10-15T04:21:02;12.35;;;6.38;;
26191;SDS011;13935;55.672;37.764;2022-10-15T04:22:11;14.77;;;6.45;;
26191;SDS011;13935;55.672;37.764;2022-10-15T04:23:20;15.18;;;6.53;;
26191;SDS011;13935;55.672;37.764;2022-10-15T04:25:01;12.10;;;6.45;;
26191;SDS011;13935;55.672;37.764;2022-10-15T04:26:04;11.65;;;5.78;;
26191;SDS011;13935;55.672;37.764;2022-10-15T04:27:07;10.85;;;5.93;;
26191;SDS011;13935;55.672;37.764;2022-10-15T04:28:10;15.18;;;6.78;;
26191;SDS011;13935;55.672;37.764;2022-10-15T04:29:13;12.50;;;6.32;;
26191;SDS011;13935;55.672;37.764;2022-10-15T04:30:16;12.80;;;6.43;;
26191;SDS011;13935;55.672;37.764;2022-10-15T04:31:28;12.27;;;6.60;;
26191;SDS011;13935;55.672;37.764;2022-10-15T04:32:43;10.07;;;6.25;;
26191;SDS011;13935;55.672;37.764;2022-10-15T04:33:47;14.15;;;6.90;;
26191;SDS011;13935;55.672;37.764;2022-10-15T04:34:50;12.50;;;6.28;;
26191;SDS011;13935;55.672;37.764;2022-10-15T04:36:02;14.77;;;6.82;;
26191;SDS011;13935;55.672;37.764;2022-10-15T04:37:21;9.82;;;6.00;;
26191;SDS011;13935;55.672;37.764;2022-10-15T04:38:24;13.23;;;6.57;;
26191;SDS011;13935;55.672;37.764;2022-10-15T04:39:34;11.80;;;6.63;;
26191;SDS011;13935;55.672;37.764;2022-10-15T04:40:38;12.77;;;6.10;;
26191;SDS011;13935;55.672;37.764;2022-10-15T04:41:42;12.68;;;6.38;;
26191;SDS011;13935;55.672;37.764;2022-10-15T04:42:55;13.02;;;6.90;;
26191;SDS011;13935;55.672;37.764;2022-10-15T04:43:59;14.40;;;6.47;;
26191;SDS011;13935;55.672;37.764;2022-10-15T04:45:04;11.88;;;6.70;;
26191;SDS011;13935;55.672;37.764;2022-10-15T04:46:09;12.30;;;6.78;;
26191;SDS011;13935;55.672;37.764;2022-10-15T04:47:11;13.15;;;6.65;;
26191;SDS011;13935;55.672;37.764;2022-10-15T04:48:17;9.88;;;6.28;;
26191;SDS011;13935;55.672;37.764;2022-10-15T04:49:21;11.43;;;6.35;;
26191;SDS011;13935;55.672;37.764;2022-10-15T04:50:23;17.13;;;7.32;;
26191;SDS011;13935;55.672;37.764;2022-10-15T04:51:44;14.90;;;7.10;;
26191;SDS011;13935;55.672;37.764;2022-10-15T04:52:50;12.60;;;6.68;;
26191;SDS011;13935;55.672;37.764;2022-10-15T04:54:07;10.27;;;6.60;;
26191;SDS011;13935;55.672;37.764;2022-10-15T04:55:17;16.00;;;6.72;;
26191;SDS011;13935;55.672;37.764;2022-10-15T04:56:23;13.00;;;6.80;;
26191;SDS011;13935;55.672;37.764;2022-10-15T04:57:26;14.05;;;7.00;;
26191;SDS011;13935;55.672;37.764;2022-10-15T04:58:29;12.38;;;6.65;;
26191;SDS011;13935;55.672;37.764;2022-10-15T04:59:33;13.35;;;6.63;;
26191;SDS011;13935;55.672;37.764;2022-10-15T05:01:05;11.10;;;6.82;;
26191;SDS011;13935;55.672;37.764;2022-10-15T05:02:24;14.50;;;6.78;;
26191;SDS011;13935;55.672;37.764;2022-10-15T05:03:37;13.05;;;6.57;;
26191;SDS011;13935;55.672;37.764;2022-10-15T05:04:45;12.23;;;6.82;;
26191;SDS011;13935;55.672;37.764;2022-10-15T05:05:47;14.23;;;6.80;;
26191;SDS011;13935;55.672;37.764;2022-10-15T05:06:50;13.43;;;6.80;;
26191;SDS011;13935;55.672;37.764;2022-10-15T05:07:53;14.10;;;7.55;;
26191;SDS011;13935;55.672;37.764;2022-10-15T05:08:55;14.88;;;6.75;;
26191;SDS011;13935;55.672;37.764;2022-10-15T05:10:01;15.00;;;7.65;;
26191;SDS011;13935;55.672;37.764;2022-10-15T05:11:08;17.02;;;7.50;;
26191;SDS011;13935;55.672;37.764;2022-10-15T05:12:21;14.07;;;7.15;;
26191;SDS011;13935;55.672;37.764;2022-10-15T05:13:23;12.63;;;7.15;;
26191;SDS011;13935;55.672;37.764;2022-10-15T05:14:25;13.82;;;7.20;;
26191;SDS011;13935;55.672;37.764;2022-10-15T05:15:45;14.55;;;7.63;;
26191;SDS011;13935;55.672;37.764;2022-10-15T05:16:49;15.88;;;7.18;;
26191;SDS011;13935;55.672;37.764;2022-10-15T05:17:51;19.02;;;7.32;;
26191;SDS011;13935;55.672;37.764;2022-10-15T05:18:55;15.32;;;6.97;;
26191;SDS011;13935;55.672;37.764;2022-10-15T05:20:06;11.52;;;6.78;;
26191;SDS011;13935;55.672;37.764;2022-10-15T05:21:09;14.63;;;7.65;;
26191;SDS011;13935;55.672;37.764;2022-10-15T05:22:16;17.25;;;7.38;;
26191;SDS011;13935;55.672;37.764;2022-10-15T05:24:41;13.55;;;7.43;;
26191;SDS011;13935;55.672;37.764;2022-10-15T05:25:58;14.15;;;7.95;;
26191;SDS011;13935;55.672;37.764;2022-10-15T05:27:04;13.77;;;7.93;;
26191;SDS011;13935;55.672;37.764;2022-10-15T05:28:07;17.67;;;8.38;;
26191;SDS011;13935;55.672;37.764;2022-10-15T05:29:09;14.15;;;7.35;;
26191;SDS011;13935;55.672;37.764;2022-10-15T05:30:12;16.23;;;8.25;;
26191;SDS011;13935;55.672;37.764;2022-10-15T05:31:21;16.80;;;7.80;;
26191;SDS011;13935;55.672;37.764;2022-10-15T05:32:35;14.73;;;7.93;;
26191;SDS011;13935;55.672;37.764;2022-10-15T05:33:37;13.90;;;8.20;;
26191;SDS011;13935;55.672;37.764;2022-10-15T05:34:40;14.77;;;7.90;;
26191;SDS011;13935;55.672;37.764;2022-10-15T05:35:47;12.98;;;7.78;;
26191;SDS011;13935;55.672;37.764;2022-10-15T05:36:49;17.63;;;7.82;;
26191;SDS011;13935;55.672;37.764;2022-10-15T05:37:51;16.13;;;7.70;;
26191;SDS011;13935;55.672;37.764;2022-10-15T05:39:00;18.73;;;8.32;;
26191;SDS011;13935;55.672;37.764;2022-10-15T05:40:06;14.55;;;7.90;;
26191;SDS011;13935;55.672;37.764;2022-10-15T05:41:08;16.10;;;8.32;;
26191;SDS011;13935;55.672;37.764;2022-10-15T05:42:11;16.65;;;8.05;;
26191;SDS011;13935;55.672;37.764;2022-10-15T05:43:24;16.33;;;8.95;;
26191;SDS011;13935;55.672;37.764;2022-10-15T05:44:37;13.57;;;7.55;;
26191;SDS011;13935;55.672;37.764;2022-10-15T05:45:39;16.92;;;8.65;;
26191;SDS011;13935;55.672;37.764;2022-10-15T05:46:41;11.25;;;8.00;;
26191;SDS011;13935;55.672;37.764;2022-10-15T05:47:52;15.00;;;7.88;;
26191;SDS011;13935;55.672;37.764;2022-10-15T05:48:56;16.67;;;8.25;;
26191;SDS011;13935;55.672;37.764;2022-10-15T05:50:01;12.32;;;7.93;;
26191;SDS011;13935;55.672;37.764;2022-10-15T05:51:13;11.93;;;7.45;;
26191;SDS011;13935;55.672;37.764;2022-10-15T05:52:17;16.27;;;7.75;;
26191;SDS011;13935;55.672;37.764;2022-10-15T05:53:54;16.10;;;8.05;;
26191;SDS011;13935;55.672;37.764;2022-10-15T05:55:00;14.35;;;7.93;;
26191;SDS011;13935;55.672;37.764;2022-10-15T05:56:02;20.33;;;9.25;;
26191;SDS011;13935;55.672;37.764;2022-10-15T05:57:06;15.27;;;8.40;;
26191;SDS011;13935;55.672;37.764;2022-10-15T05:58:08;13.50;;;7.80;;
26191;SDS011;13935;55.672;37.764;2022-10-15T05:59:11;20.08;;;8.90;;
26191;SDS011;13935;55.672;37.764;2022-10-15T06:00:13;19.92;;;8.98;;
26191;SDS011;13935;55.672;37.764;2022-10-15T06:01:25;16.83;;;8.35;;
26191;SDS011;13935;55.672;37.764;2022-10-15T06:02:27;18.58;;;8.00;;
26191;SDS011;13935;55.672;37.764;2022-10-15T06:03:30;18.02;;;8.10;;
26191;SDS011;13935;55.672;37.764;2022-10-15T06:04:33;21.65;;;8.65;;
26191;SDS011;13935;55.672;37.764;2022-10-15T06:05:36;16.80;;;8.25;;
26191;SDS011;13935;55.672;37.764;2022-10-15T06:06:38;14.65;;;8.05;;
26191;SDS011;13935;55.672;37.764;2022-10-15T06:07:42;15.88;;;8.20;;
26191;SDS011;13935;55.672;37.764;2022-10-15T06:08:46;14.27;;;7.55;;
26191;SDS011;13935;55.672;37.764;2022-10-15T06:09:48;16.35;;;8.85;;
26191;SDS011;13935;55.672;37.764;2022-10-15T06:10:51;16.55;;;8.48;;
26191;SDS011;13935;55.672;37.764;2022-10-15T06:11:53;17.80;;;9.00;;
26191;SDS011;13935;55.672;37.764;2022-10-15T06:12:58;17.60;;;8.60;;
26191;SDS011;13935;55.672;37.764;2022-10-15T06:14:02;18.42;;;9.15;;
26191;SDS011;13935;55.672;37.764;2022-10-15T06:15:04;15.57;;;8.10;;
26191;SDS011;13935;55.672;37.764;2022-10-15T06:16:07;20.58;;;8.88;;
26191;SDS011;13935;55.672;37.764;2022-10-15T06:17:10;18.30;;;8.95;;
26191;SDS011;13935;55.672;37.764;2022-10-15T06:18:15;20.17;;;8.80;;
26191;SDS011;13935;55.672;37.764;2022-10-15T06:19:17;16.67;;;8.27;;
26191;SDS011;13935;55.672;37.764;2022-10-15T06:20:21;18.17;;;8.05;;
26191;SDS011;13935;55.672;37.764;2022-10-15T06:21:23;15.23;;;8.00;;
26191;SDS011;13935;55.672;37.764;2022-10-15T06:22:25;17.63;;;8.38;;
26191;SDS011;13935;55.672;37.764;2022-10-15T06:23:27;16.80;;;8.30;;
26191;SDS011;13935;55.672;37.764;2022-10-15T06:24:29;17.85;;;8.52;;
26191;SDS011;13935;55.672;37.764;2022-10-15T06:25:32;18.67;;;8.48;;
26191;SDS011;13935;55.672;37.764;2022-10-15T06:26:36;25.70;;;9.10;;
26191;SDS011;13935;55.672;37.764;2022-10-15T06:27:39;23.65;;;9.35;;
26191;SDS011;13935;55.672;37.764;2022-10-15T06:28:41;19.52;;;9.38;;
26191;SDS011;13935;55.672;37.764;2022-10-15T06:29:43;20.17;;;9.68;;
26191;SDS011;13935;55.672;37.764;2022-10-15T06:30:45;18.23;;;9.00;;
26191;SDS011;13935;55.672;37.764;2022-10-15T06:31:47;19.80;;;8.75;;
26191;SDS011;13935;55.672;37.764;2022-10-15T06:32:50;17.40;;;8.73;;
26191;SDS011;13935;55.672;37.764;2022-10-15T06:33:53;16.65;;;7.97;;
26191;SDS011;13935;55.672;37.764;2022-10-15T06:34:55;19.40;;;8.98;;
26191;SDS011;13935;55.672;37.764;2022-10-15T06:36:03;19.65;;;8.00;;
26191;SDS011;13935;55.672;37.764;2022-10-15T06:37:11;17.98;;;8.90;;
26191;SDS011;13935;55.672;37.764;2022-10-15T06:38:13;19.52;;;8.90;;
26191;SDS011;13935;55.672;37.764;2022-10-15T06:39:16;14.70;;;7.93;;
26191;SDS011;13935;55.672;37.764;2022-10-15T06:40:18;20.10;;;8.45;;
26191;SDS011;13935;55.672;37.764;2022-10-15T06:41:22;15.77;;;7.97;;
26191;SDS011;13935;55.672;37.764;2022-10-15T06:42:24;17.27;;;8.38;;
26191;SDS011;13935;55.672;37.764;2022-10-15T06:43:29;24.90;;;9.02;;
26191;SDS011;13935;55.672;37.764;2022-10-15T06:44:35;18.95;;;10.00;;
26191;SDS011;13935;55.672;37.764;2022-10-15T06:45:38;21.98;;;11.52;;
26191;SDS011;13935;55.672;37.764;2022-10-15T06:46:50;15.43;;;9.05;;
26191;SDS011;13935;55.672;37.764;2022-10-15T06:47:53;14.77;;;8.70;;
26191;SDS011;13935;55.672;37.764;2022-10-15T06:48:55;14.43;;;8.10;;
26191;SDS011;13935;55.672;37.764;2022-10-15T06:49:59;25.45;;;8.88;;
26191;SDS011;13935;55.672;37.764;2022-10-15T06:51:01;19.17;;;8.48;;
26191;SDS011;13935;55.672;37.764;2022-10-15T06:52:04;22.35;;;9.05;;
26191;SDS011;13935;55.672;37.764;2022-10-15T06:53:06;18.38;;;8.75;;
26191;SDS011;13935;55.672;37.764;2022-10-15T06:54:10;20.45;;;8.98;;
26191;SDS011;13935;55.672;37.764;2022-10-15T06:55:12;19.23;;;9.45;;
26191;SDS011;13935;55.672;37.764;2022-10-15T06:56:14;17.55;;;8.93;;
26191;SDS011;13935;55.672;37.764;2022-10-15T06:57:18;22.98;;;8.00;;
26191;SDS011;13935;55.672;37.764;2022-10-15T06:58:20;36.60;;;17.13;;